sensor_id;sensor_type;location;lat;lon;timestamp;temperature;humidity
12761;DHT22;6444;49.742;6.114;2023-06-22T00:01:56;23.80;99.90
12761;DHT22;6444;49.742;6.114;2023-06-22T00:04:23;23.80;99.90
12761;DHT22;6444;49.742;6.114;2023-06-22T00:06:50;23.70;99.90
12761;DHT22;6444;49.742;6.114;2023-06-22T00:09:16;23.60;99.90
12761;DHT22;6444;49.742;6.114;2023-06-22T00:11:43;23.20;99.90
12761;DHT22;6444;49.742;6.114;2023-06-22T00:14:10;23.00;99.90
12761;DHT22;6444;49.742;6.114;2023-06-22T00:16:36;23.00;99.90
12761;DHT22;6444;49.742;6.114;2023-06-22T00:19:03;23.10;99.90
12761;DHT22;6444;49.742;6.114;2023-06-22T00:21:30;22.90;99.90
12761;DHT22;6444;49.742;6.114;2023-06-22T00:23:56;22.10;99.90
12761;DHT22;6444;49.742;6.114;2023-06-22T00:26:23;22.20;99.90
12761;DHT22;6444;49.742;6.114;2023-06-22T00:28:49;22.70;99.90
12761;DHT22;6444;49.742;6.114;2023-06-22T00:31:16;23.00;99.90
12761;DHT22;6444;49.742;6.114;2023-06-22T00:33:43;23.30;99.90
12761;DHT22;6444;49.742;6.114;2023-06-22T00:36:09;23.40;99.90
12761;DHT22;6444;49.742;6.114;2023-06-22T00:38:36;23.30;99.90
12761;DHT22;6444;49.742;6.114;2023-06-22T00:41:03;23.10;99.90
12761;DHT22;6444;49.742;6.114;2023-06-22T00:43:29;22.80;99.90
12761;DHT22;6444;49.742;6.114;2023-06-22T00:45:56;22.30;99.90
12761;DHT22;6444;49.742;6.114;2023-06-22T00:48:23;22.10;99.90
12761;DHT22;6444;49.742;6.114;2023-06-22T00:50:49;22.30;99.90
12761;DHT22;6444;49.742;6.114;2023-06-22T00:53:16;21.90;99.90
12761;DHT22;6444;49.742;6.114;2023-06-22T00:55:43;20.90;99.90
12761;DHT22;6444;49.742;6.114;2023-06-22T00:58:10;20.80;99.90
12761;DHT22;6444;49.742;6.114;2023-06-22T01:00:37;20.50;99.90
12761;DHT22;6444;49.742;6.114;2023-06-22T01:03:03;20.20;99.90
12761;DHT22;6444;49.742;6.114;2023-06-22T01:05:30;20.00;99.90
12761;DHT22;6444;49.742;6.114;2023-06-22T01:10:43;21.00;99.90
12761;DHT22;6444;49.742;6.114;2023-06-22T01:13:11;21.10;99.90
12761;DHT22;6444;49.742;6.114;2023-06-22T01:15:39;21.70;99.90
12761;DHT22;6444;49.742;6.114;2023-06-22T01:18:04;21.80;99.90
12761;DHT22;6444;49.742;6.114;2023-06-22T01:20:31;21.80;99.90
12761;DHT22;6444;49.742;6.114;2023-06-22T01:25:45;20.60;99.90
12761;DHT22;6444;49.742;6.114;2023-06-22T01:29:05;20.50;99.90
12761;DHT22;6444;49.742;6.114;2023-06-22T01:30:46;20.40;99.90
12761;DHT22;6444;49.742;6.114;2023-06-22T01:33:13;20.80;99.90
12761;DHT22;6444;49.742;6.114;2023-06-22T01:35:40;21.00;99.90
12761;DHT22;6444;49.742;6.114;2023-06-22T01:38:06;21.70;99.90
12761;DHT22;6444;49.742;6.114;2023-06-22T01:40:33;22.20;99.90
12761;DHT22;6444;49.742;6.114;2023-06-22T01:43:02;22.50;99.90
12761;DHT22;6444;49.742;6.114;2023-06-22T01:45:27;22.50;99.90
12761;DHT22;6444;49.742;6.114;2023-06-22T01:47:53;21.90;99.90
12761;DHT22;6444;49.742;6.114;2023-06-22T01:50:19;21.90;99.90
12761;DHT22;6444;49.742;6.114;2023-06-22T01:52:46;21.90;99.90
12761;DHT22;6444;49.742;6.114;2023-06-22T01:55:13;22.20;99.90
12761;DHT22;6444;49.742;6.114;2023-06-22T01:57:39;22.50;99.90
12761;DHT22;6444;49.742;6.114;2023-06-22T02:00:07;22.90;99.90
12761;DHT22;6444;49.742;6.114;2023-06-22T02:02:36;22.80;99.90
12761;DHT22;6444;49.742;6.114;2023-06-22T02:05:03;23.00;99.90
12761;DHT22;6444;49.742;6.114;2023-06-22T02:07:28;22.90;99.90
12761;DHT22;6444;49.742;6.114;2023-06-22T02:09:53;22.90;99.90
12761;DHT22;6444;49.742;6.114;2023-06-22T02:12:21;23.00;99.90
12761;DHT22;6444;49.742;6.114;2023-06-22T02:14:47;23.00;99.90
12761;DHT22;6444;49.742;6.114;2023-06-22T02:17:13;23.00;99.90
12761;DHT22;6444;49.742;6.114;2023-06-22T02:19:43;23.00;99.90
12761;DHT22;6444;49.742;6.114;2023-06-22T02:22:09;22.70;99.90
12761;DHT22;6444;49.742;6.114;2023-06-22T02:24:36;21.80;99.90
12761;DHT22;6444;49.742;6.114;2023-06-22T02:27:03;21.40;99.90
12761;DHT22;6444;49.742;6.114;2023-06-22T02:29:29;20.80;99.90
12761;DHT22;6444;49.742;6.114;2023-06-22T02:31:56;20.80;99.90
12761;DHT22;6444;49.742;6.114;2023-06-22T02:34:22;21.30;99.90
12761;DHT22;6444;49.742;6.114;2023-06-22T02:36:49;21.60;99.90
12761;DHT22;6444;49.742;6.114;2023-06-22T02:39:19;21.60;99.90
12761;DHT22;6444;49.742;6.114;2023-06-22T02:41:45;21.30;99.90
12761;DHT22;6444;49.742;6.114;2023-06-22T02:44:12;21.70;99.90
12761;DHT22;6444;49.742;6.114;2023-06-22T02:46:38;22.10;99.90
12761;DHT22;6444;49.742;6.114;2023-06-22T02:49:05;22.30;99.90
12761;DHT22;6444;49.742;6.114;2023-06-22T02:51:33;22.40;99.90
12761;DHT22;6444;49.742;6.114;2023-06-22T02:53:58;22.20;99.90
12761;DHT22;6444;49.742;6.114;2023-06-22T02:56:25;22.40;99.90
12761;DHT22;6444;49.742;6.114;2023-06-22T02:58:52;22.40;99.90
12761;DHT22;6444;49.742;6.114;2023-06-22T03:01:19;22.40;99.90
12761;DHT22;6444;49.742;6.114;2023-06-22T03:03:48;22.40;99.90
12761;DHT22;6444;49.742;6.114;2023-06-22T03:06:15;22.30;99.90
12761;DHT22;6444;49.742;6.114;2023-06-22T03:08:41;22.30;99.90
12761;DHT22;6444;49.742;6.114;2023-06-22T03:11:08;22.30;99.90
12761;DHT22;6444;49.742;6.114;2023-06-22T03:13:35;22.30;99.90
12761;DHT22;6444;49.742;6.114;2023-06-22T03:16:02;21.90;99.90
12761;DHT22;6444;49.742;6.114;2023-06-22T03:18:29;21.80;99.90
12761;DHT22;6444;49.742;6.114;2023-06-22T03:20:55;21.70;99.90
12761;DHT22;6444;49.742;6.114;2023-06-22T03:23:22;21.50;99.90
12761;DHT22;6444;49.742;6.114;2023-06-22T03:25:49;21.50;99.90
12761;DHT22;6444;49.742;6.114;2023-06-22T03:28:15;21.60;99.90
12761;DHT22;6444;49.742;6.114;2023-06-22T03:30:43;21.60;99.90
12761;DHT22;6444;49.742;6.114;2023-06-22T03:33:09;21.60;99.90
12761;DHT22;6444;49.742;6.114;2023-06-22T03:35:36;21.60;99.90
12761;DHT22;6444;49.742;6.114;2023-06-22T03:38:03;21.90;99.90
12761;DHT22;6444;49.742;6.114;2023-06-22T03:40:29;22.00;99.90
12761;DHT22;6444;49.742;6.114;2023-06-22T03:42:56;22.00;99.90
12761;DHT22;6444;49.742;6.114;2023-06-22T03:45:23;22.00;99.90
12761;DHT22;6444;49.742;6.114;2023-06-22T03:47:50;22.00;99.90
12761;DHT22;6444;49.742;6.114;2023-06-22T03:50:16;22.20;99.90
12761;DHT22;6444;49.742;6.114;2023-06-22T03:52:43;22.20;99.90
12761;DHT22;6444;49.742;6.114;2023-06-22T03:55:10;22.30;99.90
12761;DHT22;6444;49.742;6.114;2023-06-22T03:57:36;22.20;99.90
12761;DHT22;6444;49.742;6.114;2023-06-22T04:00:04;22.20;99.90
12761;DHT22;6444;49.742;6.114;2023-06-22T04:02:30;22.20;99.90
12761;DHT22;6444;49.742;6.114;2023-06-22T04:04:57;22.30;99.90
12761;DHT22;6444;49.742;6.114;2023-06-22T04:07:24;22.30;99.90
12761;DHT22;6444;49.742;6.114;2023-06-22T04:09:50;22.50;99.90
12761;DHT22;6444;49.742;6.114;2023-06-22T04:12:17;22.50;99.90
12761;DHT22;6444;49.742;6.114;2023-06-22T04:14:44;22.60;99.90
12761;DHT22;6444;49.742;6.114;2023-06-22T04:17:10;22.70;99.90
12761;DHT22;6444;49.742;6.114;2023-06-22T04:19:38;22.60;99.90
12761;DHT22;6444;49.742;6.114;2023-06-22T04:22:04;22.60;99.90
12761;DHT22;6444;49.742;6.114;2023-06-22T04:24:31;22.80;99.90
12761;DHT22;6444;49.742;6.114;2023-06-22T04:26:58;23.00;99.90
12761;DHT22;6444;49.742;6.114;2023-06-22T04:29:24;23.10;99.90
12761;DHT22;6444;49.742;6.114;2023-06-22T04:31:51;23.20;99.90
12761;DHT22;6444;49.742;6.114;2023-06-22T04:34:17;23.20;99.90
12761;DHT22;6444;49.742;6.114;2023-06-22T04:36:44;23.10;99.90
12761;DHT22;6444;49.742;6.114;2023-06-22T04:39:11;22.90;99.90
12761;DHT22;6444;49.742;6.114;2023-06-22T04:41:40;22.90;99.90
12761;DHT22;6444;49.742;6.114;2023-06-22T04:44:13;22.90;99.90
12761;DHT22;6444;49.742;6.114;2023-06-22T04:46:39;22.40;99.90
12761;DHT22;6444;49.742;6.114;2023-06-22T04:49:08;22.40;99.90
12761;DHT22;6444;49.742;6.114;2023-06-22T04:51:41;22.50;99.90
12761;DHT22;6444;49.742;6.114;2023-06-22T04:54:08;22.50;99.90
12761;DHT22;6444;49.742;6.114;2023-06-22T04:56:34;22.90;99.90
12761;DHT22;6444;49.742;6.114;2023-06-22T04:59:01;23.30;99.90
12761;DHT22;6444;49.742;6.114;2023-06-22T05:01:27;23.80;99.90
12761;DHT22;6444;49.742;6.114;2023-06-22T05:03:54;24.10;99.90
12761;DHT22;6444;49.742;6.114;2023-06-22T05:06:23;24.30;99.90
12761;DHT22;6444;49.742;6.114;2023-06-22T05:08:56;24.30;99.90
12761;DHT22;6444;49.742;6.114;2023-06-22T05:11:26;24.10;99.90
12761;DHT22;6444;49.742;6.114;2023-06-22T05:13:52;24.30;99.90
12761;DHT22;6444;49.742;6.114;2023-06-22T05:16:18;24.50;99.90
12761;DHT22;6444;49.742;6.114;2023-06-22T05:18:45;24.70;99.90
12761;DHT22;6444;49.742;6.114;2023-06-22T05:21:12;24.60;99.90
12761;DHT22;6444;49.742;6.114;2023-06-22T05:23:38;24.60;99.90
12761;DHT22;6444;49.742;6.114;2023-06-22T05:26:05;24.50;99.90
12761;DHT22;6444;49.742;6.114;2023-06-22T05:28:32;24.60;99.90
12761;DHT22;6444;49.742;6.114;2023-06-22T05:30:58;24.60;99.90
12761;DHT22;6444;49.742;6.114;2023-06-22T05:33:25;24.50;99.90
12761;DHT22;6444;49.742;6.114;2023-06-22T05:35:51;24.70;99.90
12761;DHT22;6444;49.742;6.114;2023-06-22T05:38:18;24.80;99.90
12761;DHT22;6444;49.742;6.114;2023-06-22T05:40:45;25.00;99.90
12761;DHT22;6444;49.742;6.114;2023-06-22T05:43:11;25.20;99.90
12761;DHT22;6444;49.742;6.114;2023-06-22T05:45:39;25.30;99.90
12761;DHT22;6444;49.742;6.114;2023-06-22T05:48:05;25.30;99.90
12761;DHT22;6444;49.742;6.114;2023-06-22T05:50:32;25.50;99.90
12761;DHT22;6444;49.742;6.114;2023-06-22T05:52:59;25.40;99.90
12761;DHT22;6444;49.742;6.114;2023-06-22T05:55:25;25.40;99.90
12761;DHT22;6444;49.742;6.114;2023-06-22T05:57:52;25.50;99.90
12761;DHT22;6444;49.742;6.114;2023-06-22T06:00:18;25.60;99.90
12761;DHT22;6444;49.742;6.114;2023-06-22T06:06:10;26.80;99.90
12761;DHT22;6444;49.742;6.114;2023-06-22T06:12:17;27.20;99.90
12761;DHT22;6444;49.742;6.114;2023-06-22T06:18:04;26.60;99.90
12761;DHT22;6444;49.742;6.114;2023-06-22T06:23:12;29.00;99.90
12761;DHT22;6444;49.742;6.114;2023-06-22T06:25:39;30.70;99.90
12761;DHT22;6444;49.742;6.114;2023-06-22T06:28:06;32.10;99.90
12761;DHT22;6444;49.742;6.114;2023-06-22T06:30:33;34.90;99.90
12761;DHT22;6444;49.742;6.114;2023-06-22T06:33:00;34.80;99.90
12761;DHT22;6444;49.742;6.114;2023-06-22T06:35:26;35.20;99.90
12761;DHT22;6444;49.742;6.114;2023-06-22T06:37:53;34.60;99.90
12761;DHT22;6444;49.742;6.114;2023-06-22T06:40:20;33.60;99.90
12761;DHT22;6444;49.742;6.114;2023-06-22T06:42:47;33.00;99.90
12761;DHT22;6444;49.742;6.114;2023-06-22T06:45:17;31.90;99.90
12761;DHT22;6444;49.742;6.114;2023-06-22T06:47:43;31.70;99.90
12761;DHT22;6444;49.742;6.114;2023-06-22T06:50:10;31.70;99.90
12761;DHT22;6444;49.742;6.114;2023-06-22T06:52:36;32.00;99.90
12761;DHT22;6444;49.742;6.114;2023-06-22T06:55:03;32.60;99.90
12761;DHT22;6444;49.742;6.114;2023-06-22T06:57:33;34.90;99.90
12761;DHT22;6444;49.742;6.114;2023-06-22T07:00:00;34.90;99.90
12761;DHT22;6444;49.742;6.114;2023-06-22T07:02:27;36.00;99.90
12761;DHT22;6444;49.742;6.114;2023-06-22T07:04:56;36.60;99.90
12761;DHT22;6444;49.742;6.114;2023-06-22T07:07:23;37.40;99.90
12761;DHT22;6444;49.742;6.114;2023-06-22T07:09:50;37.30;99.90
12761;DHT22;6444;49.742;6.114;2023-06-22T07:12:16;37.50;99.90
12761;DHT22;6444;49.742;6.114;2023-06-22T07:14:43;35.70;99.90
12761;DHT22;6444;49.742;6.114;2023-06-22T07:17:10;34.50;99.90
12761;DHT22;6444;49.742;6.114;2023-06-22T07:19:37;33.50;99.90
12761;DHT22;6444;49.742;6.114;2023-06-22T07:22:04;33.40;99.90
12761;DHT22;6444;49.742;6.114;2023-06-22T07:24:30;34.80;99.90
12761;DHT22;6444;49.742;6.114;2023-06-22T07:26:57;36.50;99.90
12761;DHT22;6444;49.742;6.114;2023-06-22T07:29:24;36.10;99.60
12761;DHT22;6444;49.742;6.114;2023-06-22T07:31:50;36.00;99.70
12761;DHT22;6444;49.742;6.114;2023-06-22T07:34:17;35.70;99.90
12761;DHT22;6444;49.742;6.114;2023-06-22T07:36:44;35.50;99.90
12761;DHT22;6444;49.742;6.114;2023-06-22T07:39:10;35.20;99.90
12761;DHT22;6444;49.742;6.114;2023-06-22T07:41:37;33.60;99.90
12761;DHT22;6444;49.742;6.114;2023-06-22T07:44:03;32.70;99.90
12761;DHT22;6444;49.742;6.114;2023-06-22T07:46:31;30.50;99.90
12761;DHT22;6444;49.742;6.114;2023-06-22T07:48:57;30.40;99.90
12761;DHT22;6444;49.742;6.114;2023-06-22T07:51:24;29.90;99.90
12761;DHT22;6444;49.742;6.114;2023-06-22T07:53:53;28.80;99.90
12761;DHT22;6444;49.742;6.114;2023-06-22T07:56:20;28.70;99.90
12761;DHT22;6444;49.742;6.114;2023-06-22T07:58:46;27.80;99.90
12761;DHT22;6444;49.742;6.114;2023-06-22T08:01:16;27.10;99.90
12761;DHT22;6444;49.742;6.114;2023-06-22T08:03:39;26.90;99.90
12761;DHT22;6444;49.742;6.114;2023-06-22T08:06:06;26.80;99.90
12761;DHT22;6444;49.742;6.114;2023-06-22T08:08:32;26.70;99.90
12761;DHT22;6444;49.742;6.114;2023-06-22T08:10:59;26.70;99.90
12761;DHT22;6444;49.742;6.114;2023-06-22T08:13:26;26.90;99.90
12761;DHT22;6444;49.742;6.114;2023-06-22T08:15:52;26.30;99.90
12761;DHT22;6444;49.742;6.114;2023-06-22T08:18:20;26.00;99.90
12761;DHT22;6444;49.742;6.114;2023-06-22T08:20:46;25.90;99.90
12761;DHT22;6444;49.742;6.114;2023-06-22T08:23:13;25.60;99.90
12761;DHT22;6444;49.742;6.114;2023-06-22T08:25:40;25.40;99.90
12761;DHT22;6444;49.742;6.114;2023-06-22T08:28:06;25.60;99.90
12761;DHT22;6444;49.742;6.114;2023-06-22T08:30:33;25.80;99.90
12761;DHT22;6444;49.742;6.114;2023-06-22T08:32:59;26.00;99.90
12761;DHT22;6444;49.742;6.114;2023-06-22T08:35:26;26.50;99.90
12761;DHT22;6444;49.742;6.114;2023-06-22T08:37:53;26.40;99.90
12761;DHT22;6444;49.742;6.114;2023-06-22T08:40:19;25.90;99.90
12761;DHT22;6444;49.742;6.114;2023-06-22T08:42:46;24.70;99.90
12761;DHT22;6444;49.742;6.114;2023-06-22T08:45:13;24.00;99.90
12761;DHT22;6444;49.742;6.114;2023-06-22T08:47:40;23.80;99.90
12761;DHT22;6444;49.742;6.114;2023-06-22T08:50:06;23.20;99.90
12761;DHT22;6444;49.742;6.114;2023-06-22T08:52:33;22.90;99.90
12761;DHT22;6444;49.742;6.114;2023-06-22T08:54:59;22.60;99.90
12761;DHT22;6444;49.742;6.114;2023-06-22T08:57:26;22.50;99.90
12761;DHT22;6444;49.742;6.114;2023-06-22T08:59:53;22.00;99.90
12761;DHT22;6444;49.742;6.114;2023-06-22T09:02:19;21.90;99.90
12761;DHT22;6444;49.742;6.114;2023-06-22T09:04:46;22.70;99.90
12761;DHT22;6444;49.742;6.114;2023-06-22T09:07:12;23.60;99.90
12761;DHT22;6444;49.742;6.114;2023-06-22T09:09:39;24.10;99.90
12761;DHT22;6444;49.742;6.114;2023-06-22T09:12:07;22.90;99.90
12761;DHT22;6444;49.742;6.114;2023-06-22T09:14:33;22.90;99.90
12761;DHT22;6444;49.742;6.114;2023-06-22T09:17:00;23.20;99.90
12761;DHT22;6444;49.742;6.114;2023-06-22T09:19:27;23.50;99.90
12761;DHT22;6444;49.742;6.114;2023-06-22T09:21:53;23.40;99.90
12761;DHT22;6444;49.742;6.114;2023-06-22T09:24:20;23.10;99.90
12761;DHT22;6444;49.742;6.114;2023-06-22T09:26:47;24.00;99.90
12761;DHT22;6444;49.742;6.114;2023-06-22T09:29:14;24.00;99.90
12761;DHT22;6444;49.742;6.114;2023-06-22T09:31:41;24.30;99.90
12761;DHT22;6444;49.742;6.114;2023-06-22T09:34:07;24.30;99.90
12761;DHT22;6444;49.742;6.114;2023-06-22T09:36:34;24.70;99.90
12761;DHT22;6444;49.742;6.114;2023-06-22T09:39:00;25.00;99.90
12761;DHT22;6444;49.742;6.114;2023-06-22T09:41:27;25.20;99.90
12761;DHT22;6444;49.742;6.114;2023-06-22T09:43:54;25.40;99.90
12761;DHT22;6444;49.742;6.114;2023-06-22T09:46:20;24.90;99.90
12761;DHT22;6444;49.742;6.114;2023-06-22T09:48:48;24.20;99.90
12761;DHT22;6444;49.742;6.114;2023-06-22T09:51:14;24.10;99.90
12761;DHT22;6444;49.742;6.114;2023-06-22T09:53:41;24.70;99.90
12761;DHT22;6444;49.742;6.114;2023-06-22T09:56:09;25.80;99.90
12761;DHT22;6444;49.742;6.114;2023-06-22T09:58:34;27.10;99.90
12761;DHT22;6444;49.742;6.114;2023-06-22T10:01:01;28.10;99.90
12761;DHT22;6444;49.742;6.114;2023-06-22T10:03:27;29.30;99.90
12761;DHT22;6444;49.742;6.114;2023-06-22T10:05:54;30.70;99.90
12761;DHT22;6444;49.742;6.114;2023-06-22T10:08:21;30.70;99.90
12761;DHT22;6444;49.742;6.114;2023-06-22T10:10:47;31.10;99.90
12761;DHT22;6444;49.742;6.114;2023-06-22T10:13:14;31.60;99.90
12761;DHT22;6444;49.742;6.114;2023-06-22T10:15:41;32.50;99.90
12761;DHT22;6444;49.742;6.114;2023-06-22T10:18:07;32.40;99.90
12761;DHT22;6444;49.742;6.114;2023-06-22T10:20:34;32.60;99.90
12761;DHT22;6444;49.742;6.114;2023-06-22T10:23:01;32.60;99.90
12761;DHT22;6444;49.742;6.114;2023-06-22T10:25:27;32.30;99.90
12761;DHT22;6444;49.742;6.114;2023-06-22T10:27:54;31.80;99.90
12761;DHT22;6444;49.742;6.114;2023-06-22T10:30:20;31.30;99.90
12761;DHT22;6444;49.742;6.114;2023-06-22T10:32:47;30.90;99.90
12761;DHT22;6444;49.742;6.114;2023-06-22T10:35:14;30.00;99.90
12761;DHT22;6444;49.742;6.114;2023-06-22T10:37:40;29.60;99.90
12761;DHT22;6444;49.742;6.114;2023-06-22T10:40:07;29.10;99.90
12761;DHT22;6444;49.742;6.114;2023-06-22T10:42:34;28.90;99.90
12761;DHT22;6444;49.742;6.114;2023-06-22T10:45:00;29.00;99.90
12761;DHT22;6444;49.742;6.114;2023-06-22T10:47:27;29.50;99.90
12761;DHT22;6444;49.742;6.114;2023-06-22T10:49:54;28.90;99.90
12761;DHT22;6444;49.742;6.114;2023-06-22T10:52:20;29.50;99.90
12761;DHT22;6444;49.742;6.114;2023-06-22T10:54:47;30.10;99.90
12761;DHT22;6444;49.742;6.114;2023-06-22T10:57:14;30.80;99.90
12761;DHT22;6444;49.742;6.114;2023-06-22T10:59:40;30.70;99.90
12761;DHT22;6444;49.742;6.114;2023-06-22T11:02:07;30.50;99.90
12761;DHT22;6444;49.742;6.114;2023-06-22T11:04:34;31.00;99.90
12761;DHT22;6444;49.742;6.114;2023-06-22T11:07:00;30.90;99.90
12761;DHT22;6444;49.742;6.114;2023-06-22T11:09:27;30.50;99.90
12761;DHT22;6444;49.742;6.114;2023-06-22T11:11:55;30.90;99.90
12761;DHT22;6444;49.742;6.114;2023-06-22T11:14:20;31.30;99.90
12761;DHT22;6444;49.742;6.114;2023-06-22T11:16:47;31.80;99.90
12761;DHT22;6444;49.742;6.114;2023-06-22T11:19:14;32.20;99.90
12761;DHT22;6444;49.742;6.114;2023-06-22T11:21:41;32.20;99.90
12761;DHT22;6444;49.742;6.114;2023-06-22T11:24:07;32.10;99.90
12761;DHT22;6444;49.742;6.114;2023-06-22T11:26:34;31.80;99.90
12761;DHT22;6444;49.742;6.114;2023-06-22T11:29:01;31.50;99.90
12761;DHT22;6444;49.742;6.114;2023-06-22T11:31:27;32.20;99.90
12761;DHT22;6444;49.742;6.114;2023-06-22T11:33:55;31.10;99.90
12761;DHT22;6444;49.742;6.114;2023-06-22T11:36:21;31.00;99.90
12761;DHT22;6444;49.742;6.114;2023-06-22T11:38:48;30.40;99.90
12761;DHT22;6444;49.742;6.114;2023-06-22T11:41:14;30.50;99.90
12761;DHT22;6444;49.742;6.114;2023-06-22T11:43:41;30.60;99.90
12761;DHT22;6444;49.742;6.114;2023-06-22T11:46:08;30.60;99.90
12761;DHT22;6444;49.742;6.114;2023-06-22T11:48:35;31.50;99.90
12761;DHT22;6444;49.742;6.114;2023-06-22T11:51:02;31.40;99.90
12761;DHT22;6444;49.742;6.114;2023-06-22T11:53:28;31.90;99.90
12761;DHT22;6444;49.742;6.114;2023-06-22T11:55:55;31.20;99.90
12761;DHT22;6444;49.742;6.114;2023-06-22T11:58:22;30.00;99.90
12761;DHT22;6444;49.742;6.114;2023-06-22T12:00:49;29.20;99.90
12761;DHT22;6444;49.742;6.114;2023-06-22T12:03:16;29.20;99.90
12761;DHT22;6444;49.742;6.114;2023-06-22T12:05:42;29.40;99.90
12761;DHT22;6444;49.742;6.114;2023-06-22T12:08:09;29.60;99.90
12761;DHT22;6444;49.742;6.114;2023-06-22T12:10:36;29.80;99.90
12761;DHT22;6444;49.742;6.114;2023-06-22T12:13:02;29.80;99.90
12761;DHT22;6444;49.742;6.114;2023-06-22T12:15:29;29.70;99.90
12761;DHT22;6444;49.742;6.114;2023-06-22T12:17:56;30.10;99.90
12761;DHT22;6444;49.742;6.114;2023-06-22T12:20:22;30.00;99.90
12761;DHT22;6444;49.742;6.114;2023-06-22T12:22:49;29.40;99.90
12761;DHT22;6444;49.742;6.114;2023-06-22T12:25:15;29.70;99.90
12761;DHT22;6444;49.742;6.114;2023-06-22T12:27:42;30.60;99.90
12761;DHT22;6444;49.742;6.114;2023-06-22T12:30:09;32.00;99.90
12761;DHT22;6444;49.742;6.114;2023-06-22T12:32:35;32.10;99.90
12761;DHT22;6444;49.742;6.114;2023-06-22T12:35:02;31.40;99.90
12761;DHT22;6444;49.742;6.114;2023-06-22T12:37:29;31.00;99.90
12761;DHT22;6444;49.742;6.114;2023-06-22T12:39:55;29.90;99.90
12761;DHT22;6444;49.742;6.114;2023-06-22T12:42:22;29.40;99.90
12761;DHT22;6444;49.742;6.114;2023-06-22T12:44:48;30.30;99.90
12761;DHT22;6444;49.742;6.114;2023-06-22T12:47:15;31.10;99.90
12761;DHT22;6444;49.742;6.114;2023-06-22T12:49:42;32.00;99.90
12761;DHT22;6444;49.742;6.114;2023-06-22T12:52:09;32.60;99.90
12761;DHT22;6444;49.742;6.114;2023-06-22T12:54:36;31.70;99.90
12761;DHT22;6444;49.742;6.114;2023-06-22T12:57:02;31.70;99.90
12761;DHT22;6444;49.742;6.114;2023-06-22T12:59:29;31.20;99.90
12761;DHT22;6444;49.742;6.114;2023-06-22T13:01:56;30.30;99.90
12761;DHT22;6444;49.742;6.114;2023-06-22T13:04:22;28.80;99.90
12761;DHT22;6444;49.742;6.114;2023-06-22T13:06:49;28.70;99.90
12761;DHT22;6444;49.742;6.114;2023-06-22T13:09:17;28.30;99.90
12761;DHT22;6444;49.742;6.114;2023-06-22T13:11:42;28.20;99.90
12761;DHT22;6444;49.742;6.114;2023-06-22T13:14:09;28.20;99.90
12761;DHT22;6444;49.742;6.114;2023-06-22T13:16:36;28.80;99.90
12761;DHT22;6444;49.742;6.114;2023-06-22T13:19:03;28.70;99.90
12761;DHT22;6444;49.742;6.114;2023-06-22T13:21:30;28.70;99.90
12761;DHT22;6444;49.742;6.114;2023-06-22T13:23:56;28.30;99.90
12761;DHT22;6444;49.742;6.114;2023-06-22T13:26:23;27.00;99.90
12761;DHT22;6444;49.742;6.114;2023-06-22T13:28:49;26.60;99.90
12761;DHT22;6444;49.742;6.114;2023-06-22T13:31:16;26.40;99.90
12761;DHT22;6444;49.742;6.114;2023-06-22T13:33:43;25.00;99.90
12761;DHT22;6444;49.742;6.114;2023-06-22T13:36:10;23.40;99.90
12761;DHT22;6444;49.742;6.114;2023-06-22T13:38:37;23.30;99.90
12761;DHT22;6444;49.742;6.114;2023-06-22T13:41:04;23.30;99.90
12761;DHT22;6444;49.742;6.114;2023-06-22T13:43:30;23.10;99.90
12761;DHT22;6444;49.742;6.114;2023-06-22T13:45:57;23.20;99.90
12761;DHT22;6444;49.742;6.114;2023-06-22T13:48:23;23.40;99.90
12761;DHT22;6444;49.742;6.114;2023-06-22T13:50:51;24.00;99.90
12761;DHT22;6444;49.742;6.114;2023-06-22T13:53:17;23.90;99.90
12761;DHT22;6444;49.742;6.114;2023-06-22T13:55:44;24.40;99.90
12761;DHT22;6444;49.742;6.114;2023-06-22T13:58:10;24.40;99.90
12761;DHT22;6444;49.742;6.114;2023-06-22T14:00:37;24.20;99.90
12761;DHT22;6444;49.742;6.114;2023-06-22T14:03:04;24.00;99.90
12761;DHT22;6444;49.742;6.114;2023-06-22T14:05:30;24.30;99.90
12761;DHT22;6444;49.742;6.114;2023-06-22T14:07:57;24.00;99.90
12761;DHT22;6444;49.742;6.114;2023-06-22T14:10:24;24.30;99.90
12761;DHT22;6444;49.742;6.114;2023-06-22T14:12:51;24.20;99.90
12761;DHT22;6444;49.742;6.114;2023-06-22T14:15:18;24.70;99.90
12761;DHT22;6444;49.742;6.114;2023-06-22T14:17:44;24.90;99.90
12761;DHT22;6444;49.742;6.114;2023-06-22T14:20:11;24.90;99.90
12761;DHT22;6444;49.742;6.114;2023-06-22T14:22:38;24.80;99.90
12761;DHT22;6444;49.742;6.114;2023-06-22T14:25:04;24.70;99.90
12761;DHT22;6444;49.742;6.114;2023-06-22T14:27:31;24.80;99.90
12761;DHT22;6444;49.742;6.114;2023-06-22T14:29:58;25.10;99.90
12761;DHT22;6444;49.742;6.114;2023-06-22T14:32:24;25.40;99.90
12761;DHT22;6444;49.742;6.114;2023-06-22T14:34:51;25.80;99.90
12761;DHT22;6444;49.742;6.114;2023-06-22T14:37:17;26.30;99.90
12761;DHT22;6444;49.742;6.114;2023-06-22T14:39:44;26.50;99.90
12761;DHT22;6444;49.742;6.114;2023-06-22T14:42:11;25.80;99.90
12761;DHT22;6444;49.742;6.114;2023-06-22T14:44:37;25.80;99.90
12761;DHT22;6444;49.742;6.114;2023-06-22T14:47:04;26.30;99.90
12761;DHT22;6444;49.742;6.114;2023-06-22T14:49:31;26.50;99.90
12761;DHT22;6444;49.742;6.114;2023-06-22T14:51:57;26.20;99.90
12761;DHT22;6444;49.742;6.114;2023-06-22T14:54:24;26.10;99.90
12761;DHT22;6444;49.742;6.114;2023-06-22T14:56:51;26.50;99.90
12761;DHT22;6444;49.742;6.114;2023-06-22T14:59:17;25.80;99.90
12761;DHT22;6444;49.742;6.114;2023-06-22T15:01:44;26.10;99.90
12761;DHT22;6444;49.742;6.114;2023-06-22T15:04:10;26.50;99.90
12761;DHT22;6444;49.742;6.114;2023-06-22T15:06:37;26.80;99.90
12761;DHT22;6444;49.742;6.114;2023-06-22T15:09:04;26.30;99.90
12761;DHT22;6444;49.742;6.114;2023-06-22T15:11:31;26.10;99.90
12761;DHT22;6444;49.742;6.114;2023-06-22T15:14:00;26.00;99.90
12761;DHT22;6444;49.742;6.114;2023-06-22T15:16:27;25.70;99.90
12761;DHT22;6444;49.742;6.114;2023-06-22T15:18:54;25.20;99.90
12761;DHT22;6444;49.742;6.114;2023-06-22T15:21:21;25.20;99.90
12761;DHT22;6444;49.742;6.114;2023-06-22T15:23:48;25.10;99.90
12761;DHT22;6444;49.742;6.114;2023-06-22T15:26:14;25.20;99.90
12761;DHT22;6444;49.742;6.114;2023-06-22T15:28:41;25.40;99.90
12761;DHT22;6444;49.742;6.114;2023-06-22T15:31:08;25.50;99.90
12761;DHT22;6444;49.742;6.114;2023-06-22T15:33:35;25.30;99.90
12761;DHT22;6444;49.742;6.114;2023-06-22T15:36:02;25.20;99.90
12761;DHT22;6444;49.742;6.114;2023-06-22T15:38:28;25.20;99.90
12761;DHT22;6444;49.742;6.114;2023-06-22T15:40:55;25.20;99.90
12761;DHT22;6444;49.742;6.114;2023-06-22T15:43:22;25.00;99.90
12761;DHT22;6444;49.742;6.114;2023-06-22T15:45:49;25.00;99.90
12761;DHT22;6444;49.742;6.114;2023-06-22T15:48:16;25.20;99.90
12761;DHT22;6444;49.742;6.114;2023-06-22T15:50:42;25.10;99.90
12761;DHT22;6444;49.742;6.114;2023-06-22T15:53:09;24.80;99.90
12761;DHT22;6444;49.742;6.114;2023-06-22T15:55:35;25.10;99.90
12761;DHT22;6444;49.742;6.114;2023-06-22T15:58:02;25.00;99.90
12761;DHT22;6444;49.742;6.114;2023-06-22T16:00:29;24.40;99.90